Change the Weather History Date:

Saturday, December 22, 2012

  Actual Average Record
Temperature  
Mean Temperature 40 °F -  
Max Temperature 46 °F 51 °F 77 °F (2013)
Min Temperature 33 °F 28 °F 3 °F (1989)
Degree Days  
Heating Degree Days 26    
Moisture  
Dew Point 21 °F    
Average Humidity 51    
Maximum Humidity 65    
Minimum Humidity 37    
Precipitation  
Precipitation 0.00 in - - ()
Sea Level Pressure  
Sea Level Pressure 29.93 in    
Wind  
Wind Speed 9 mph (WSW)    
Max Wind Speed 18 mph    
Max Gust Speed 25 mph    
Visibility 10 miles    
Events      
Averages and records for this station are not official NWS values.
T = Trace of Precipitation, MM = Missing Value Source: NWS Daily Summary

Daily Weather History Graph

Daily Weather History Graph

Search for Another Location

Airport or City:

Trip Planner

Search our weather history database for the weather conditions in past years. The results will help you decide how hot, cold, wet, or windy it might be!

Date:

Astronomy

Dec. 22, 2012 Rise Set
Actual Time 7:19 AM EST 4:58 PM EST
Civil Twilight 6:50 AM EST 5:27 PM EST
Nautical Twilight 6:17 AM EST 5:59 PM EST
Astronomical Twilight 5:46 AM EST 6:31 PM EST
Moon 1:10 PM EST (12/22) 2:07 AM EST (12/22)
Length of Visible Light 10h 36m
Length of Day
9h 39m
Waxing Gibbous, 73% of the Moon is Illuminated
Dec 22
Waxing Gibbous
Dec 28
Full
Jan 4
Last Quarter
Jan 11
New
Jan 18
First Quarter

Hourly Weather History & Observations

Time (EST) Temp. Windchill Dew Point Humidity Pressure Visibility Wind Dir Wind Speed Gust Speed Precip Events Conditions
12:15 AM 33.8 °F 27.7 °F 21.2 °F 60% 29.74 in 10.0 mi WSW 6.9 mph - N/A   Clear
12:35 AM 33.8 °F 27.0 °F 21.2 °F 60% 29.75 in 10.0 mi SW 8.1 mph - N/A   Clear
12:55 AM 33.8 °F 27.0 °F 21.2 °F 60% 29.75 in 10.0 mi SW 8.1 mph - N/A   Clear
1:15 AM 33.8 °F 26.4 °F 21.2 °F 60% 29.76 in 10.0 mi WSW 9.2 mph - N/A   Clear
1:35 AM 33.8 °F 25.8 °F 21.2 °F 60% 29.76 in 10.0 mi SW 10.4 mph 17.3 mph N/A   Clear
1:55 AM 33.8 °F 25.8 °F 21.2 °F 60% 29.77 in 10.0 mi SW 10.4 mph - N/A   Clear
2:15 AM 33.8 °F 25.3 °F 21.2 °F 60% 29.77 in 10.0 mi SW 11.5 mph 18.4 mph N/A   Clear
2:35 AM 33.8 °F 27.7 °F 21.2 °F 60% 29.78 in - WSW 6.9 mph - N/A   Clear
2:55 AM 33.8 °F 26.4 °F 21.2 °F 60% 29.79 in 10.0 mi SW 9.2 mph - N/A   Clear
3:15 AM 33.8 °F 25.8 °F 21.2 °F 60% 29.79 in 10.0 mi SW 10.4 mph - N/A   Clear
3:35 AM 33.8 °F 27.0 °F 21.2 °F 60% 29.80 in 10.0 mi SW 8.1 mph - N/A   Clear
3:55 AM 33.8 °F 26.4 °F 21.2 °F 60% 29.80 in 10.0 mi SW 9.2 mph 18.4 mph N/A   Clear
4:15 AM 33.8 °F 26.4 °F 21.2 °F 60% 29.81 in 10.0 mi WSW 9.2 mph - N/A   Clear
4:35 AM 33.8 °F 26.4 °F 21.2 °F 60% 29.81 in 10.0 mi SW 9.2 mph - N/A   Clear
4:55 AM 33.8 °F 26.4 °F 21.2 °F 60% 29.82 in 10.0 mi SW 9.2 mph - N/A   Clear
5:15 AM 33.8 °F 27.0 °F 21.2 °F 60% 29.83 in 10.0 mi SW 8.1 mph - N/A   Mostly Cloudy
5:35 AM 33.8 °F 27.0 °F 23.0 °F 65% 29.84 in 10.0 mi SW 8.1 mph - N/A   Mostly Cloudy
5:55 AM 33.8 °F 26.4 °F 23.0 °F 65% 29.84 in 10.0 mi WSW 9.2 mph - N/A   Scattered Clouds
6:15 AM 33.8 °F 26.4 °F 23.0 °F 65% 29.86 in 10.0 mi WSW 9.2 mph - N/A   Clear
6:35 AM 33.8 °F 28.6 °F 23.0 °F 65% 29.86 in 10.0 mi WSW 5.8 mph - N/A   Clear
6:55 AM 33.8 °F 27.0 °F 23.0 °F 65% 29.87 in 10.0 mi SW 8.1 mph - N/A   Clear
7:15 AM 33.8 °F 28.6 °F 23.0 °F 65% 29.88 in 10.0 mi WSW 5.8 mph - N/A   Clear
7:35 AM 33.8 °F 27.0 °F 23.0 °F 65% 29.88 in 10.0 mi WSW 8.1 mph - N/A   Clear
7:55 AM 35.6 °F 28.0 °F 23.0 °F 60% 29.89 in 10.0 mi WSW 10.4 mph 16.1 mph N/A   Clear
8:15 AM 35.6 °F 27.1 °F 23.0 °F 60% 29.91 in 10.0 mi West 12.7 mph 20.7 mph N/A   Clear
8:35 AM 37.4 °F 29.8 °F 23.0 °F 56% 29.92 in 10.0 mi WSW 11.5 mph 19.6 mph N/A   Clear
8:55 AM 37.4 °F 29.3 °F 23.0 °F 56% 29.92 in 10.0 mi WSW 12.7 mph 21.9 mph N/A   Clear
9:15 AM 37.4 °F 30.3 °F 23.0 °F 56% 29.94 in 10.0 mi WSW 10.4 mph 25.3 mph N/A   Clear
9:35 AM 41.0 °F 33.9 °F 23.0 °F 49% 29.95 in 10.0 mi West 12.7 mph 19.6 mph N/A   Clear
9:55 AM 41.0 °F 34.7 °F 23.0 °F 49% 29.96 in 10.0 mi West 10.4 mph 21.9 mph N/A   Clear
10:15 AM 41.0 °F 32.8 °F 23.0 °F 49% 29.96 in 10.0 mi West 16.1 mph 25.3 mph N/A   Clear
10:35 AM 42.8 °F 35.8 °F 23.0 °F 46% 29.96 in 10.0 mi West 13.8 mph 24.2 mph N/A   Clear
10:55 AM 42.8 °F 35.4 °F 23.0 °F 46% 29.96 in 10.0 mi WSW 15.0 mph 25.3 mph N/A   Clear
11:15 AM 44.6 °F 38.8 °F 23.0 °F 43% 29.95 in 10.0 mi West 11.5 mph 24.2 mph N/A   Clear
11:35 AM 44.6 °F 36.9 °F 21.2 °F 39% 29.96 in 10.0 mi West 18.4 mph 24.2 mph N/A   Clear
11:55 AM 44.6 °F 37.8 °F 21.2 °F 39% 29.95 in 10.0 mi West 15.0 mph 25.3 mph N/A   Clear
12:15 PM 44.6 °F 37.4 °F 21.2 °F 39% 29.94 in 10.0 mi West 16.1 mph 23.0 mph N/A   Clear
12:35 PM 46.4 °F 40.4 °F 21.2 °F 37% 29.94 in 10.0 mi West 13.8 mph 21.9 mph N/A   Clear
12:55 PM 46.4 °F 39.8 °F 21.2 °F 37% 29.94 in - WSW 16.1 mph 20.7 mph N/A   Clear
1:15 PM 46.4 °F 40.7 °F 21.2 °F 37% 29.94 in 10.0 mi WSW 12.7 mph 20.7 mph N/A   Clear
1:35 PM 46.4 °F 40.4 °F 21.2 °F 37% 29.95 in 10.0 mi West 13.8 mph 20.7 mph N/A   Clear
1:55 PM 46.4 °F 41.1 °F 21.2 °F 37% 29.94 in 10.0 mi WSW 11.5 mph 18.4 mph N/A   Clear
2:15 PM 46.4 °F 41.1 °F 21.2 °F 37% 29.94 in 10.0 mi West 11.5 mph 19.6 mph N/A   Clear
2:35 PM 46.4 °F 40.7 °F 21.2 °F 37% 29.94 in 10.0 mi SW 12.7 mph 18.4 mph N/A   Clear
2:55 PM 46.4 °F 41.5 °F 21.2 °F 37% 29.94 in 10.0 mi West 10.4 mph 17.3 mph N/A   Clear
3:15 PM 46.4 °F 41.1 °F 21.2 °F 37% 29.95 in 10.0 mi WSW 11.5 mph 17.3 mph N/A   Clear
3:35 PM 46.4 °F 41.9 °F 21.2 °F 37% 29.95 in 10.0 mi WSW 9.2 mph - N/A   Clear
3:55 PM 46.4 °F 41.9 °F 21.2 °F 37% 29.96 in 10.0 mi WSW 9.2 mph 17.3 mph N/A   Clear
4:15 PM 44.6 °F 39.7 °F 21.2 °F 39% 29.97 in 10.0 mi WSW 9.2 mph - N/A   Clear
4:35 PM 44.6 °F 41.4 °F 21.2 °F 39% 29.98 in 10.0 mi SW 5.8 mph - N/A   Clear
4:55 PM 42.8 °F 39.3 °F 21.2 °F 42% 29.99 in 10.0 mi SW 5.8 mph - N/A   Clear
5:15 PM 42.8 °F 37.5 °F 21.2 °F 42% 30.00 in 10.0 mi WSW 9.2 mph - N/A   Clear
5:35 PM 41.0 °F 36.4 °F 21.2 °F 45% 30.01 in 10.0 mi SW 6.9 mph - N/A   Clear
5:55 PM 41.0 °F 37.1 °F 21.2 °F 45% 30.02 in 10.0 mi WSW 5.8 mph - N/A   Clear
6:15 PM 41.0 °F 37.1 °F 21.2 °F 45% 30.03 in 10.0 mi SW 5.8 mph - N/A   Clear
6:35 PM 39.2 °F 34.2 °F 21.2 °F 49% 30.04 in 10.0 mi SW 6.9 mph - N/A   Clear
6:55 PM 39.2 °F 35.9 °F 21.2 °F 49% 30.04 in 10.0 mi SSW 4.6 mph - N/A   Clear
7:15 PM 39.2 °F 35.9 °F 21.2 °F 49% 30.05 in 10.0 mi SW 4.6 mph - N/A   Clear
7:35 PM 39.2 °F - 21.2 °F 49% 30.05 in 10.0 mi Calm Calm - N/A   Clear
7:55 PM 37.4 °F 34.9 °F 21.2 °F 52% 30.05 in 10.0 mi WSW 3.5 mph - N/A   Clear
8:15 PM 37.4 °F - 21.2 °F 52% 30.06 in 10.0 mi Calm Calm - N/A   Clear
8:35 PM 37.4 °F 34.9 °F 21.2 °F 52% 30.06 in 10.0 mi WSW 3.5 mph - N/A   Clear
8:55 PM 37.4 °F - 19.4 °F 48% 30.07 in 10.0 mi Calm Calm - N/A   Clear
9:15 PM 37.4 °F 33.8 °F 19.4 °F 48% 30.07 in 10.0 mi West 4.6 mph - N/A   Clear
9:35 PM 37.4 °F 34.9 °F 19.4 °F 48% 30.07 in 10.0 mi West 3.5 mph - N/A   Clear
9:55 PM 37.4 °F - 19.4 °F 48% 30.07 in 10.0 mi Calm Calm - N/A   Clear
10:15 PM 35.6 °F 32.8 °F 19.4 °F 52% 30.06 in 10.0 mi West 3.5 mph - N/A   Clear
10:35 PM 35.6 °F 32.8 °F 19.4 °F 52% 30.07 in 10.0 mi West 3.5 mph - N/A   Clear
10:55 PM 33.8 °F - 19.4 °F 56% 30.07 in 10.0 mi Calm Calm - N/A   Clear
11:15 PM 33.8 °F - 19.4 °F 56% 30.07 in - Calm Calm - N/A   Clear
11:35 PM 33.8 °F 29.6 °F 19.4 °F 56% 30.07 in 10.0 mi West 4.6 mph - N/A   Clear
11:55 PM 35.6 °F 29.2 °F 17.6 °F 48% 30.07 in - WNW 8.1 mph - N/A   Clear